This is the latest recevied weather packets stored in our database for station/object EA1CUE-WX. If no packets are shown the sender has not sent any weather packets the latest 10 day(s).
| Time | Temp. | Humidity | Pressure | Rain* | Wind** | Luminosity | Snow |
|---|---|---|---|---|---|---|---|
| 1777724025 | 10.56° C | 28% | 1014 hPa | 3.3 mm | - | - | - |
| 1777723725 | 10.56° C | 24% | 1013.8 hPa | 3.3 mm | - | - | - |
| 1777723425 | 10° C | 2% | 1013.7 hPa | 3.05 mm | - | - | - |
| 1777723125 | 10° C | 1% | 1013.9 hPa | 3.05 mm | - | - | - |
| 1777722525 | 10° C | 1% | 1014.3 hPa | 4.32 mm | - | - | - |
| 1777722225 | 10° C | 1% | 1014.3 hPa | 4.06 mm | - | - | - |
| 1777721925 | 10° C | 1% | 1014.4 hPa | 3.56 mm | - | - | - |
| 1777721625 | 10° C | 1% | 1014.5 hPa | 3.05 mm | - | - | - |
| 1777721325 | 10.56° C | 1% | 1014.5 hPa | 2.79 mm | - | - | - |
| 1777721025 | 10.56° C | 1% | 1014.4 hPa | 2.29 mm | - | - | - |
| 1777720725 | 11.11° C | 1% | 1014.4 hPa | 2.03 mm | - | - | - |
| 1777720425 | 11.67° C | 1% | 1014.2 hPa | 1.78 mm | - | - | - |
| 1777720125 | 11.67° C | 1% | 1014.1 hPa | 1.78 mm | - | - | - |
| 1777719825 | 11.67° C | 1% | 1014.1 hPa | 1.78 mm | - | - | - |
| 1777719525 | 11.67° C | 2% | 1014.2 hPa | 1.78 mm | - | - | - |
| 1777719225 | 12.78° C | 19% | 1014.1 hPa | 1.27 mm | - | - | - |
| 1777718925 | 13.89° C | 23% | 1014.1 hPa | 0 mm | - | - | - |
| 1777718625 | 15° C | 19% | 1013.9 hPa | 0 mm | - | - | - |
| 1777718325 | 15° C | 18% | 1013.9 hPa | 0 mm | - | - | - |
| 1777718025 | 15° C | 19% | 1014 hPa | 0 mm | - | - | - |
| 1777717725 | 15° C | 20% | 1014 hPa | 0 mm | - | - | - |
| 1777717425 | 15° C | 15% | 1014 hPa | 0 mm | - | - | - |
| 1777717125 | 15° C | 12% | 1014 hPa | 0 mm | - | - | - |
| 1777716825 | 15° C | 16% | 1014 hPa | 0 mm | - | - | - |
| 1777716525 | 15° C | 17% | 1014.1 hPa | 0 mm | - | - | - |
* Rain latest hour (hover to see other rain measurements)
** Current wind speed in m/s (hover to see current wind gust speed)